Yalta, Ukraine
Current Conditions -  °F | °C
As of 8:00 PM on Saturday 25 Oct 2014 (Local Time) from URFF Reporting Station
Clear Clear  
Wind Chill: 24°   Ceiling: Unl
Heat Index: 37°   Visibility: 6mi
Dew Point: 32°   Wind: 38mph
Humidity: 81%   Direction: 70°ENE
Pressure: 30.21"   Gusts: 51mph
Location:  45.48°N, 34.17°E
Report Text: URFF 251700Z 07017G23MPS CAVOK 03/M00 Q1023 01010065 NOSIG
Loading
Personal Weather Stations






























Interactive Weather Map
Tropical Storm Tracking
New forecast layout! Learn more

10-Day Weather Forecast

Advertisements
Track Severe Weather on mobile